CDT,Max TemperatureF,Mean TemperatureF,Min TemperatureF,Max Dew PointF,MeanDew PointF,Min DewpointF,Max Humidity, Mean Humidity, Min Humidity, Max Sea Level PressureIn, Mean Sea Level PressureIn, Min Sea Level PressureIn, Max VisibilityMiles, Mean VisibilityMiles, Min VisibilityMiles, Max Wind SpeedMPH, Mean Wind SpeedMPH, Max Gust SpeedMPH,PrecipitationIn, CloudCover, Events, WindDirDegrees
2013-10-1,78,70,62,65,62,59,93,77,60,30.04,29.99,29.95,10,7,5,15,9,20,0.00,6,,197
2013-10-2,82,74,66,67,65,63,93,76,58,30.09,30.04,29.99,10,4,0,15,7,17,0.00,4,Fog,194
2013-10-3,85,74,63,66,64,60,93,72,51,30.00,29.97,29.88,10,8,2,8,10,9,1.13,5,Rain-Thunderstorm,204
2013-10-4,86,76,65,68,65,59,87,66,45,30.00,29.97,29.91,10,10,9,17,9,22,0.00,2,,186
2013-10-5,81,70,58,70,66,52,90,80,69,29.96,29.90,29.81,10,10,5,22,9,26,0.06,5,Rain-Thunderstorm,203
2013-10-6,62,55,47,51,43,36,83,63,42,29.86,29.83,29.79,10,10,10,24,10,33,0.07,5,Rain,250
2013-10-7,69,58,46,49,45,42,93,65,37,30.14,29.98,29.84,10,10,5,15,7,20,T,4,Rain,276
2013-10-8,76,60,43,48,44,40,89,60,31,30.23,30.18,30.14,10,10,10,14,4,18,0.00,0,,179
2013-10-9,75,58,41,48,44,40,89,61,33,30.23,30.17,30.12,10,10,9,12,3,15,0.00,0,,122
2013-10-10,79,63,47,56,51,44,93,68,42,30.18,30.11,30.04,10,10,8,10,4,17,0.00,2,,149
2013-10-11,80,66,52,58,53,50,89,64,39,30.07,30.01,29.94,10,10,9,20,8,24,0.00,2,,163
2013-10-12,74,63,51,63,55,41,87,68,49,30.21,30.05,29.98,10,10,3,15,8,20,0.10,3,Rain,208
2013-10-13,71,56,41,41,36,29,73,48,22,30.39,30.33,30.22,10,10,10,13,5,16,0.00,0,,4
2013-10-14,70,53,35,44,37,34,92,59,26,30.39,30.28,30.11,10,10,9,15,6,,0.00,0,Snow,101
2013-10-15,66,60,54,62,56,44,93,78,62,30.08,29.94,29.87,10,8,2,18,10,23,0.10,5,Rain,197
2013-10-16,54,49,43,45,41,40,83,73,63,30.02,29.99,29.95,10,10,10,17,8,22,0.00,6,,269
2013-10-17,61,53,44,45,41,37,86,64,42,29.99,29.95,29.90,10,10,10,17,7,22,0.02,5,Rain,245
2013-10-18,57,51,44,43,39,35,86,68,50,30.04,29.99,29.93,10,10,8,16,8,22,0.01,4,Rain,275
2013-10-19,56,49,42,43,38,31,100,69,38,29.98,29.95,29.91,10,10,6,23,10,29,0.29,5,Rain,268
2013-10-20,69,55,40,42,38,35,85,59,32,29.95,29.90,29.83,10,10,10,29,14,38,0.00,1,,205
2013-10-21,54,43,32,43,35,25,82,63,44,30.06,29.98,29.89,10,10,10,17,9,23,0.00,2,,275
2013-10-22,49,40,30,43,35,26,92,74,56,30.06,29.95,29.83,10,10,8,21,8,25,0.13,6,Rain,181
2013-10-23,46,41,36,37,32,26,100,75,49,30.12,30.04,29.94,10,10,7,18,10,23,0.00,7,,304
2013-10-24,45,39,33,34,26,20,85,61,37,30.39,30.22,30.10,10,10,10,22,11,29,0.00,7,,293
2013-10-25,52,39,26,28,25,22,84,61,38,30.50,30.39,30.22,10,10,10,16,9,20,0.00,0,,239
2013-10-26,62,50,38,37,30,24,64,47,30,30.19,30.07,29.97,10,10,10,23,14,31,0.00,2,,262
2013-10-27,57,43,29,32,28,25,85,58,30,30.14,30.09,30.04,10,10,10,14,3,18,0.00,0,,254
2013-10-28,65,46,26,36,28,23,85,55,25,30.30,30.22,30.09,10,10,2,13,3,17,0.00,0,,94
2013-10-29,58,47,35,52,45,32,96,80,63,30.31,30.21,30.12,10,6,2,13,7,15,0.05,5,Rain,106
2013-10-30,68,61,53,63,58,50,93,87,81,30.12,30.01,29.86,10,3,0,20,9,28,0.38,8,Fog-Rain-Thunderstorm,155
2013-10-31,66,57,48,61,56,43,93,87,80,29.84,29.58,29.35,10,7,2,24,15,36,1.65,8,Rain,235